Time;durP1;ratioP1;P1;durP2;ratioP2;P2;SDS_P1;SDS_P2;PMS_P1;PMS_P2;Temp;Humidity;BMP_temperature;BMP_pressure;BME280_temperature;BME280_humidity;BME280_pressure;Samples;Min_cycle;Max_cycle;Signal;HPM_P1;HPM_P2
2023/01/06 00:00:21;;;;;;;27.20;8.40;;;;;;;8.15;100.00;101111.88;105427;1297;60077;-74
2023/01/06 00:02:48;;;;;;;25.10;7.40;;;;;;;8.15;100.00;101105.88;105556;1292;60230;-74
2023/01/06 00:05:14;;;;;;;27.10;7.70;;;;;;;8.15;100.00;101108.67;105507;1295;59791;-74
2023/01/06 00:07:42;;;;;;;25.00;7.60;;;;;;;8.16;100.00;101105.05;105413;1296;71047;-76
2023/01/06 00:10:10;;;;;;;27.60;7.80;;;;;;;8.16;100.00;101103.14;105409;1289;73313;-74
2023/01/06 00:12:37;;;;;;;24.20;7.00;;;;;;;8.17;100.00;101103.28;105264;1286;60059;-74
2023/01/06 00:15:04;;;;;;;21.70;6.60;;;;;;;8.15;100.00;101099.91;105511;1293;59811;-74
2023/01/06 00:17:30;;;;;;;25.10;7.30;;;;;;;8.14;100.00;101095.91;105596;1294;75217;-74
2023/01/06 00:19:57;;;;;;;18.80;6.70;;;;;;;8.13;100.00;101096.17;105467;1292;59801;-74
2023/01/06 00:22:23;;;;;;;25.30;6.80;;;;;;;8.13;100.00;101096.59;105444;1295;71796;-74
2023/01/06 00:24:50;;;;;;;19.10;7.10;;;;;;;8.13;100.00;101093.19;105645;1284;59793;-74
2023/01/06 00:27:16;;;;;;;24.60;7.30;;;;;;;8.14;100.00;101089.60;105639;1294;59819;-74
2023/01/06 00:29:42;;;;;;;25.00;6.90;;;;;;;8.15;100.00;101089.48;105584;1294;60185;-74
2023/01/06 00:32:09;;;;;;;17.10;6.20;;;;;;;8.17;100.00;101089.69;105602;1286;60054;-74
2023/01/06 00:34:35;;;;;;;24.90;7.40;;;;;;;8.16;100.00;101091.15;105603;1292;59724;-74
2023/01/06 00:37:02;;;;;;;20.30;6.50;;;;;;;8.14;100.00;101095.59;105610;1290;59919;-75
2023/01/06 00:39:29;;;;;;;20.20;6.50;;;;;;;8.12;100.00;101090.34;105615;1294;60357;-75
2023/01/06 00:42:04;;;;;;;22.60;7.60;;;;;;;8.09;100.00;101089.39;105599;1292;60097;-76
2023/01/06 00:44:36;;;;;;;23.30;6.70;;;;;;;8.06;100.00;101086.48;105654;1293;69661;-75
2023/01/06 00:47:07;;;;;;;18.80;5.70;;;;;;;8.06;100.00;101081.39;105337;1300;71428;-75
2023/01/06 00:49:34;;;;;;;18.30;6.90;;;;;;;8.05;100.00;101081.00;105452;1294;59806;-75
2023/01/06 00:52:01;;;;;;;22.50;7.00;;;;;;;8.06;100.00;101078.41;105456;1293;59943;-75
2023/01/06 00:54:27;;;;;;;20.60;6.60;;;;;;;8.07;100.00;101076.54;105585;1294;75374;-75
2023/01/06 00:56:54;;;;;;;17.90;6.70;;;;;;;8.09;100.00;101077.79;105476;1292;59844;-75
2023/01/06 00:59:23;;;;;;;18.90;6.90;;;;;;;8.09;100.00;101076.67;105415;1296;73801;-74
2023/01/06 01:01:52;;;;;;;20.60;6.70;;;;;;;8.11;100.00;101080.75;105515;1294;60193;-74
2023/01/06 01:04:19;;;;;;;17.00;6.50;;;;;;;8.11;100.00;101078.80;105497;1293;60959;-74
2023/01/06 01:06:47;;;;;;;19.30;7.40;;;;;;;8.12;100.00;101078.16;105500;1294;74267;-74
2023/01/06 01:09:16;;;;;;;19.10;7.00;;;;;;;8.13;100.00;101078.75;105435;1295;70981;-74
2023/01/06 01:14:28;;;;;;;18.10;7.40;;;;;;;8.11;100.00;101081.06;105514;1295;59917;-74
2023/01/06 01:16:55;;;;;;;22.50;7.90;;;;;;;8.12;100.00;101080.34;105465;1295;60553;-74
2023/01/06 01:19:23;;;;;;;18.70;7.60;;;;;;;8.14;100.00;101078.17;105423;1296;59810;-74
2023/01/06 01:21:49;;;;;;;20.80;8.00;;;;;;;8.15;100.00;101079.45;105500;1297;70996;-74
2023/01/06 01:24:17;;;;;;;18.60;7.60;;;;;;;8.16;100.00;101084.67;105616;1284;71455;-74
2023/01/06 01:26:44;;;;;;;20.10;7.60;;;;;;;8.16;100.00;101084.09;105523;1294;60390;-74
2023/01/06 01:29:12;;;;;;;19.20;7.00;;;;;;;8.19;100.00;101083.19;105427;1286;60268;-76
2023/01/06 01:31:39;;;;;;;17.10;7.60;;;;;;;8.20;100.00;101084.50;105411;1294;74210;-76
2023/01/06 01:34:07;;;;;;;20.60;7.70;;;;;;;8.22;100.00;101081.48;105432;1296;71237;-77
2023/01/06 01:36:33;;;;;;;21.30;8.20;;;;;;;8.23;100.00;101077.80;105364;1295;70416;-77
2023/01/06 01:39:00;;;;;;;14.50;6.70;;;;;;;8.24;100.00;101072.98;105373;1294;59969;-75
2023/01/06 01:41:28;;;;;;;16.80;7.00;;;;;;;8.24;100.00;101061.36;105400;1298;59710;-74
2023/01/06 01:44:22;;;;;;;17.00;7.30;;;;;;;8.25;100.00;101062.33;105408;1295;75846;-74
2023/01/06 01:46:48;;;;;;;13.90;7.10;;;;;;;8.27;100.00;101060.86;105457;1297;69681;-74
2023/01/06 01:49:19;;;;;;;15.90;6.70;;;;;;;8.30;100.00;101059.02;105455;1292;71117;-74
2023/01/06 01:51:48;;;;;;;16.20;7.00;;;;;;;8.31;100.00;101054.66;105446;1292;61996;-74
2023/01/06 01:54:26;;;;;;;18.00;7.30;;;;;;;8.32;100.00;101053.01;105485;1294;60179;-75
2023/01/06 01:56:59;;;;;;;14.60;6.40;;;;;;;8.32;100.00;101050.86;105436;1290;74689;-74
2023/01/06 01:59:28;;;;;;;17.40;7.10;;;;;;;8.32;100.00;101049.80;105432;1295;69950;-75
2023/01/06 02:01:55;;;;;;;16.60;7.10;;;;;;;8.30;100.00;101046.44;105554;1286;70212;-75
2023/01/06 02:04:24;;;;;;;17.70;7.00;;;;;;;8.29;100.00;101040.20;105497;1290;60382;-75
2023/01/06 02:06:52;;;;;;;17.20;6.90;;;;;;;8.30;100.00;101037.98;105610;1294;59732;-74
2023/01/06 02:09:31;;;;;;;18.30;6.80;;;;;;;8.31;100.00;101037.27;105559;1291;74059;-74
2023/01/06 02:11:58;;;;;;;13.10;6.50;;;;;;;8.31;100.00;101035.83;105449;1295;72368;-75
2023/01/06 02:14:26;;;;;;;16.90;7.00;;;;;;;8.32;100.00;101036.78;105490;1296;73313;-75
2023/01/06 02:17:05;;;;;;;12.30;6.70;;;;;;;8.31;100.00;101034.07;105395;1295;59786;-75
2023/01/06 02:19:47;;;;;;;13.50;6.70;;;;;;;8.32;100.00;101033.27;105579;1291;59990;-74
2023/01/06 02:22:29;;;;;;;16.30;6.70;;;;;;;8.33;100.00;101031.77;105625;1295;75585;-75
2023/01/06 02:25:53;;;;;;;15.70;6.70;;;;;;;8.35;100.00;101029.77;105514;1295;69697;-76
2023/01/06 02:28:55;;;;;;;13.80;6.20;;;;;;;8.39;100.00;101019.34;105104;1302;72068;-75
2023/01/06 02:32:02;;;;;;;11.90;5.60;;;;;;;8.41;100.00;101015.99;105626;1294;61338;-75
2023/01/06 02:34:32;;;;;;;16.00;7.00;;;;;;;8.43;100.00;101020.73;105314;1297;60106;-75
2023/01/06 02:37:32;;;;;;;10.90;5.90;;;;;;;8.43;100.00;101026.20;105604;1287;74839;-75
2023/01/06 02:40:18;;;;;;;11.90;6.50;;;;;;;8.43;100.00;101019.36;105603;1295;69553;-75
2023/01/06 02:43:12;;;;;;;14.80;6.50;;;;;;;8.44;100.00;101017.69;105491;1296;72960;-75
2023/01/06 02:46:01;;;;;;;13.40;6.30;;;;;;;8.43;100.00;101016.45;105477;1293;59829;-75
2023/01/06 02:48:42;;;;;;;15.50;6.40;;;;;;;8.45;100.00;101012.96;105514;1297;60648;-75
2023/01/06 02:51:27;;;;;;;13.80;5.80;;;;;;;8.46;100.00;101006.52;105505;1295;74640;-76
2023/01/06 02:54:25;;;;;;;14.00;6.00;;;;;;;8.46;100.00;101002.57;105641;1296;71023;-76
2023/01/06 02:57:20;;;;;;;10.70;6.00;;;;;;;8.49;100.00;100998.92;105216;1301;71593;-76
2023/01/06 03:00:01;;;;;;;10.40;5.00;;;;;;;8.52;100.00;100992.98;105504;1300;60030;-75
2023/01/06 03:02:30;;;;;;;12.70;5.40;;;;;;;8.53;100.00;100990.95;105595;1297;59513;-75
2023/01/06 03:05:00;;;;;;;10.00;5.40;;;;;;;8.56;100.00;100986.31;105494;1295;74639;-75
2023/01/06 03:07:27;;;;;;;8.70;5.00;;;;;;;8.58;100.00;100980.57;105578;1294;69791;-75
2023/01/06 03:09:54;;;;;;;9.40;5.30;;;;;;;8.62;100.00;100979.89;105519;1288;72690;-75
2023/01/06 03:13:11;;;;;;;9.40;5.20;;;;;;;8.64;100.00;100969.61;105461;1289;60916;-75
2023/01/06 03:15:37;;;;;;;11.90;4.90;;;;;;;8.68;100.00;100966.95;104920;1296;60159;-75
2023/01/06 03:18:04;;;;;;;9.60;4.40;;;;;;;8.71;100.00;100961.19;105451;1295;74591;-75
2023/01/06 03:20:31;;;;;;;9.60;4.20;;;;;;;8.73;100.00;100958.45;105425;1292;71217;-75
2023/01/06 03:22:57;;;;;;;9.40;4.50;;;;;;;8.77;100.00;100957.21;105471;1292;71174;-75
2023/01/06 03:25:24;;;;;;;9.50;4.00;;;;;;;8.80;100.00;100957.43;105490;1295;60203;-75
2023/01/06 03:27:50;;;;;;;8.10;4.20;;;;;;;8.81;100.00;100948.84;105600;1290;60178;-75
2023/01/06 03:30:17;;;;;;;8.20;4.80;;;;;;;8.82;100.00;100955.63;105402;1298;60377;-75
2023/01/06 03:32:55;;;;;;;9.10;4.30;;;;;;;8.86;100.00;100957.00;105473;1295;69835;-75
2023/01/06 03:35:31;;;;;;;10.10;4.30;;;;;;;8.91;100.00;100955.61;105625;1294;71190;-75
2023/01/06 03:38:27;;;;;;;8.20;4.40;;;;;;;8.92;100.00;100951.18;105586;1295;60226;-75
2023/01/06 03:43:10;;;;;;;7.80;4.20;;;;;;;8.94;100.00;100949.27;105285;1302;60197;-75
2023/01/06 03:44:23;;;;;;;8.50;4.40;;;;;;;8.96;100.00;100950.08;105631;1292;75716;-75
2023/01/06 03:46:53;;;;;;;8.50;4.00;;;;;;;8.95;100.00;100948.92;105497;1301;70884;-75
2023/01/06 03:49:41;;;;;;;6.40;3.90;;;;;;;8.97;100.00;100944.67;105559;1293;73318;-75
2023/01/06 03:52:21;;;;;;;9.30;4.70;;;;;;;8.98;100.00;100942.27;105481;1295;61025;-75
2023/01/06 03:55:01;;;;;;;7.10;3.60;;;;;;;9.02;100.00;100937.01;105550;1294;59816;-75
2023/01/06 03:57:36;;;;;;;8.90;4.00;;;;;;;9.03;100.00;100939.88;105385;1295;74379;-75
2023/01/06 04:00:17;;;;;;;7.10;3.90;;;;;;;9.05;100.00;100940.59;105319;1289;70901;-75
2023/01/06 04:02:45;;;;;;;7.90;4.00;;;;;;;9.05;100.00;100938.30;105432;1294;71122;-75
2023/01/06 04:05:15;;;;;;;8.30;4.00;;;;;;;9.06;100.00;100937.27;105367;1301;59660;-75
2023/01/06 04:07:42;;;;;;;7.40;3.60;;;;;;;9.08;100.00;100934.23;105429;1290;60117;-75
2023/01/06 04:10:10;;;;;;;6.60;3.80;;;;;;;9.10;100.00;100937.19;105555;1288;74319;-75
2023/01/06 04:12:37;;;;;;;6.00;3.30;;;;;;;9.12;100.00;100934.50;105398;1298;69561;-75
2023/01/06 04:15:16;;;;;;;7.90;3.60;;;;;;;9.15;100.00;100935.79;105477;1292;72347;-75
2023/01/06 04:17:43;;;;;;;8.20;3.90;;;;;;;9.16;100.00;100929.14;105518;1294;59803;-75
2023/01/06 04:20:14;;;;;;;7.30;3.50;;;;;;;9.17;100.00;100924.30;105384;1293;60111;-75
2023/01/06 04:22:41;;;;;;;10.00;3.90;;;;;;;9.18;100.00;100919.81;105585;1294;74880;-75
2023/01/06 04:25:08;;;;;;;6.70;3.50;;;;;;;9.18;100.00;100915.23;105481;1292;69892;-75
2023/01/06 04:27:35;;;;;;;8.80;3.70;;;;;;;9.18;100.00;100906.23;105462;1301;72845;-75
2023/01/06 04:30:02;;;;;;;8.40;4.20;;;;;;;9.21;100.00;100905.71;105393;1291;60209;-75
2023/01/06 04:32:28;;;;;;;6.40;3.50;;;;;;;9.23;100.00;100906.39;105484;1292;59877;-75
2023/01/06 04:34:55;;;;;;;7.60;3.60;;;;;;;9.23;100.00;100908.17;105470;1294;59674;-75
2023/01/06 04:37:21;;;;;;;8.60;3.80;;;;;;;9.23;100.00;100909.44;105585;1298;59708;-75
2023/01/06 04:39:48;;;;;;;8.50;3.60;;;;;;;9.24;100.00;100909.09;105456;1295;60160;-75
2023/01/06 04:42:14;;;;;;;8.20;3.90;;;;;;;9.25;100.00;100906.39;105505;1297;60121;-75
2023/01/06 04:44:41;;;;;;;6.90;4.30;;;;;;;9.25;100.00;100899.96;105525;1294;59881;-75
2023/01/06 04:47:09;;;;;;;6.10;3.90;;;;;;;9.27;100.00;100897.13;105557;1294;74914;-75
2023/01/06 04:49:36;;;;;;;10.40;4.00;;;;;;;9.28;100.00;100895.13;105372;1295;70689;-75
2023/01/06 04:52:03;;;;;;;9.10;4.00;;;;;;;9.28;100.00;100891.58;105573;1287;72471;-75
2023/01/06 04:54:29;;;;;;;7.00;4.00;;;;;;;9.28;100.00;100883.77;105460;1294;60221;-75
2023/01/06 04:56:56;;;;;;;6.70;4.20;;;;;;;9.29;100.00;100888.33;105591;1294;60156;-75
2023/01/06 04:59:22;;;;;;;7.00;4.00;;;;;;;9.30;100.00;100882.19;105510;1293;60473;-75
2023/01/06 05:01:48;;;;;;;5.50;3.80;;;;;;;9.30;100.00;100886.05;105469;1295;59815;-75
2023/01/06 05:04:15;;;;;;;5.90;3.40;;;;;;;9.32;100.00;100887.45;105589;1294;59783;-75
2023/01/06 05:06:41;;;;;;;6.60;3.30;;;;;;;9.33;100.00;100890.01;105618;1285;59930;-75
2023/01/06 05:09:08;;;;;;;8.10;3.50;;;;;;;9.36;100.00;100883.98;105475;1294;60332;-75
2023/01/06 05:11:35;;;;;;;7.00;3.40;;;;;;;9.38;100.00;100883.66;105451;1293;59752;-75
2023/01/06 05:14:01;;;;;;;5.30;3.00;;;;;;;9.40;100.00;100879.86;105480;1295;59753;-75
2023/01/06 05:16:31;;;;;;;7.70;3.30;;;;;;;9.41;100.00;100876.45;105367;1291;60731;-75
2023/01/06 05:18:58;;;;;;;5.40;3.00;;;;;;;9.40;100.00;100873.23;105503;1292;61346;-75
2023/01/06 05:21:27;;;;;;;4.40;2.80;;;;;;;9.42;100.00;100877.08;105449;1292;61842;-75
2023/01/06 05:23:57;;;;;;;5.80;2.90;;;;;;;9.45;100.00;100874.96;105433;1294;75990;-75
2023/01/06 05:26:26;;;;;;;5.40;2.70;;;;;;;9.46;100.00;100867.95;105517;1290;60322;-75
2023/01/06 05:28:53;;;;;;;5.70;2.70;;;;;;;9.49;100.00;100860.89;105469;1295;72854;-75
2023/01/06 05:31:21;;;;;;;5.40;2.50;;;;;;;9.53;100.00;100863.82;105485;1292;61325;-75
2023/01/06 05:33:47;;;;;;;5.20;2.20;;;;;;;9.54;100.00;100864.81;105397;1296;59717;-75
2023/01/06 05:36:15;;;;;;;5.70;2.20;;;;;;;9.57;100.00;100862.03;105473;1295;60475;-75
2023/01/06 05:38:42;;;;;;;6.20;2.50;;;;;;;9.58;100.00;100861.70;105610;1289;70961;-75
2023/01/06 05:41:09;;;;;;;4.20;2.00;;;;;;;9.61;100.00;100862.52;105437;1296;71752;-74
2023/01/06 05:43:36;;;;;;;6.40;2.00;;;;;;;9.63;100.00;100861.61;105369;1296;62237;-75
2023/01/06 05:46:07;;;;;;;5.50;2.10;;;;;;;9.64;100.00;100860.62;105493;1289;60626;-75
2023/01/06 05:48:34;;;;;;;3.70;2.10;;;;;;;9.65;100.00;100848.08;105405;1294;77490;-75
2023/01/06 05:51:09;;;;;;;5.60;1.90;;;;;;;9.65;100.00;100849.34;105306;1296;70414;-75
2023/01/06 05:53:38;;;;;;;3.40;1.70;;;;;;;9.65;100.00;100848.50;105493;1286;72665;-75
2023/01/06 05:56:06;;;;;;;4.70;1.70;;;;;;;9.65;100.00;100849.39;105511;1291;61820;-75
2023/01/06 05:58:34;;;;;;;3.50;1.60;;;;;;;9.63;100.00;100849.36;105668;1286;59508;-75
2023/01/06 06:01:01;;;;;;;4.10;1.60;;;;;;;9.64;100.00;100841.84;105532;1287;75242;-75
2023/01/06 06:03:28;;;;;;;4.80;1.70;;;;;;;9.64;99.96;100847.30;105521;1280;71061;-75
2023/01/06 06:06:00;;;;;;;4.80;1.50;;;;;;;9.62;99.10;100844.00;105596;1294;72521;-75
2023/01/06 06:08:27;;;;;;;5.50;1.60;;;;;;;9.65;99.33;100841.61;105495;1287;60519;-75
2023/01/06 06:10:54;;;;;;;5.70;1.60;;;;;;;9.65;99.47;100840.98;105448;1287;59786;-75
2023/01/06 06:13:20;;;;;;;4.70;1.70;;;;;;;9.67;99.56;100840.13;105609;1291;59797;-75
2023/01/06 06:15:49;;;;;;;4.50;1.50;;;;;;;9.66;98.59;100832.27;105511;1295;71564;-74
2023/01/06 06:18:16;;;;;;;3.50;1.30;;;;;;;9.65;97.90;100822.84;105614;1293;59825;-74
2023/01/06 06:20:42;;;;;;;5.70;1.50;;;;;;;9.67;98.00;100827.21;105417;1294;61438;-74
2023/01/06 06:23:09;;;;;;;4.70;1.20;;;;;;;9.68;97.60;100828.17;105454;1291;59637;-74
2023/01/06 06:25:35;;;;;;;3.50;1.20;;;;;;;9.69;97.60;100825.39;105491;1294;60111;-75
2023/01/06 06:28:02;;;;;;;5.30;1.40;;;;;;;9.71;97.10;100822.58;105630;1292;60902;-75
2023/01/06 06:30:28;;;;;;;4.70;1.10;;;;;;;9.71;96.83;100822.02;105576;1286;60092;-75
2023/01/06 06:32:54;;;;;;;2.40;1.10;;;;;;;9.72;97.04;100829.16;105473;1292;60275;-75
2023/01/06 06:35:21;;;;;;;3.40;1.10;;;;;;;9.73;96.88;100826.78;105657;1295;60155;-75
2023/01/06 06:37:47;;;;;;;2.70;1.10;;;;;;;9.73;96.30;100825.89;105498;1292;222502;-75
2023/01/06 06:40:14;;;;;;;2.50;1.00;;;;;;;9.73;96.12;100831.02;105482;1297;60091;-75
2023/01/06 06:42:40;;;;;;;2.70;0.90;;;;;;;9.76;96.36;100819.54;105399;1294;60239;-75
2023/01/06 06:45:07;;;;;;;4.10;1.20;;;;;;;9.76;95.23;100815.05;105392;1296;60117;-74
2023/01/06 06:47:34;;;;;;;4.40;1.00;;;;;;;9.79;94.63;100816.30;105649;1294;60141;-75
2023/01/06 06:50:00;;;;;;;3.70;1.00;;;;;;;9.81;94.54;100820.26;105551;1294;59852;-75
2023/01/06 06:52:27;;;;;;;4.30;1.40;;;;;;;9.83;94.78;100809.63;105499;1294;59820;-74
2023/01/06 06:54:53;;;;;;;2.80;0.90;;;;;;;9.84;94.56;100805.28;105614;1292;59773;-75
2023/01/06 06:57:19;;;;;;;3.40;1.10;;;;;;;9.82;93.21;100799.25;105636;1293;59777;-74
2023/01/06 06:59:46;;;;;;;3.30;0.90;;;;;;;9.83;92.90;100798.15;105520;1294;60360;-74
2023/01/06 07:02:12;;;;;;;4.00;0.90;;;;;;;9.84;92.76;100796.14;105456;1289;60134;-74
2023/01/06 07:04:39;;;;;;;2.70;0.80;;;;;;;9.81;92.21;100797.42;105512;1292;59817;-74
2023/01/06 07:07:06;;;;;;;2.70;0.90;;;;;;;9.80;92.01;100799.85;105421;1295;59855;-74
2023/01/06 07:09:32;;;;;;;3.40;0.90;;;;;;;9.77;91.05;100790.66;105375;1294;59193;-74
2023/01/06 07:11:58;;;;;;;3.40;0.90;;;;;;;9.76;90.81;100789.73;105561;1292;59844;-74
2023/01/06 07:14:25;;;;;;;3.90;1.00;;;;;;;9.75;90.12;100790.48;105624;1286;59792;-74
2023/01/06 07:16:51;;;;;;;3.40;0.90;;;;;;;9.77;89.48;100784.81;105638;1292;59899;-74
2023/01/06 07:19:18;;;;;;;3.90;1.00;;;;;;;9.81;89.52;100778.19;105591;1286;59803;-74
2023/01/06 07:21:44;;;;;;;2.80;1.00;;;;;;;9.83;89.18;100767.27;105344;1295;60154;-74
2023/01/06 07:24:11;;;;;;;5.10;1.10;;;;;;;9.83;88.31;100765.44;105596;1287;60212;-74
2023/01/06 07:26:37;;;;;;;4.30;1.10;;;;;;;9.85;87.97;100771.80;105512;1295;59639;-74
2023/01/06 07:29:03;;;;;;;4.80;1.20;;;;;;;9.85;87.37;100778.64;105497;1292;60612;-74
2023/01/06 07:31:30;;;;;;;5.70;1.30;;;;;;;9.91;86.68;100773.94;105598;1291;59851;-74
2023/01/06 07:33:57;;;;;;;3.20;1.20;;;;;;;9.95;86.53;100771.88;105612;1293;59908;-74
2023/01/06 07:36:23;;;;;;;2.90;1.00;;;;;;;9.99;86.24;100782.63;105636;1294;59657;-74
2023/01/06 07:38:49;;;;;;;3.80;1.10;;;;;;;10.02;85.42;100793.42;105510;1293;60408;-74
2023/01/06 07:41:16;;;;;;;3.70;1.10;;;;;;;10.07;85.50;100792.69;105621;1288;59841;-74
2023/01/06 07:43:42;;;;;;;3.20;1.10;;;;;;;10.07;85.18;100784.66;105618;1286;59681;-74
2023/01/06 07:46:09;;;;;;;3.80;1.10;;;;;;;10.10;85.09;100787.02;105504;1296;60954;-74
2023/01/06 07:48:36;;;;;;;4.00;0.90;;;;;;;10.11;84.76;100780.39;105623;1288;59786;-74
2023/01/06 07:51:02;;;;;;;3.90;1.00;;;;;;;10.12;84.77;100786.31;105456;1293;60176;-74
2023/01/06 07:53:29;;;;;;;3.40;1.00;;;;;;;10.12;84.14;100785.05;105515;1292;60211;-73
2023/01/06 07:55:55;;;;;;;4.50;1.10;;;;;;;10.12;84.08;100788.56;105503;1287;59932;-74
2023/01/06 07:58:25;;;;;;;2.90;1.00;;;;;;;10.14;84.01;100793.99;105622;1293;59771;-73
2023/01/06 08:00:51;;;;;;;2.80;0.90;;;;;;;10.14;83.85;100785.59;105404;1292;59845;-73
2023/01/06 08:03:17;;;;;;;3.30;1.10;;;;;;;10.15;83.76;100787.14;105535;1294;60131;-74
2023/01/06 08:05:44;;;;;;;3.40;1.20;;;;;;;10.17;83.84;100778.52;105543;1294;59911;-74
2023/01/06 08:08:11;;;;;;;3.60;1.00;;;;;;;10.16;83.84;100777.34;105406;1290;60080;-73
2023/01/06 08:10:39;;;;;;;3.20;1.00;;;;;;;10.18;83.77;100776.83;105520;1294;61705;-73
2023/01/06 08:13:05;;;;;;;3.50;1.10;;;;;;;10.17;83.28;100777.25;105489;1284;60225;-73
2023/01/06 08:15:32;;;;;;;3.50;1.00;;;;;;;10.18;83.30;100774.67;105476;1294;74470;-73
2023/01/06 08:17:58;;;;;;;3.10;0.80;;;;;;;10.18;82.88;100782.41;105618;1288;59876;-73
2023/01/06 08:20:25;;;;;;;3.40;0.80;;;;;;;10.20;82.65;100792.63;105422;1295;71178;-73
2023/01/06 08:22:52;;;;;;;4.50;1.10;;;;;;;10.23;82.43;100794.10;105475;1289;59810;-73
2023/01/06 08:25:18;;;;;;;3.70;1.10;;;;;;;10.25;82.55;100799.50;105405;1294;59754;-74
2023/01/06 08:27:45;;;;;;;3.50;1.20;;;;;;;10.26;81.81;100792.41;105507;1294;73343;-74
2023/01/06 08:30:11;;;;;;;4.90;1.30;;;;;;;10.29;81.54;100784.10;105508;1295;59908;-73
2023/01/06 08:32:38;;;;;;;3.60;1.00;;;;;;;10.33;81.33;100782.28;105505;1296;70466;-73
2023/01/06 08:35:05;;;;;;;2.40;0.90;;;;;;;10.37;81.47;100777.52;105609;1292;59910;-73
2023/01/06 08:37:31;;;;;;;2.90;0.90;;;;;;;10.40;81.20;100781.81;105610;1286;59985;-73
2023/01/06 08:39:58;;;;;;;2.60;0.90;;;;;;;10.43;81.35;100778.46;105633;1287;59737;-74
2023/01/06 08:42:24;;;;;;;2.00;0.90;;;;;;;10.44;80.75;100780.67;105657;1285;59768;-73
2023/01/06 08:44:50;;;;;;;3.70;1.20;;;;;;;10.48;80.72;100784.31;105632;1284;60125;-73
2023/01/06 08:47:17;;;;;;;4.20;0.90;;;;;;;10.48;80.74;100781.77;105643;1294;60196;-73
2023/01/06 08:49:43;;;;;;;2.70;0.90;;;;;;;10.52;80.80;100785.09;105413;1286;60226;-73
2023/01/06 08:52:10;;;;;;;3.70;1.00;;;;;;;10.55;80.73;100785.04;105457;1295;60503;-73
2023/01/06 08:54:36;;;;;;;5.20;2.30;;;;;;;10.60;80.73;100781.86;105553;1286;60225;-73
2023/01/06 08:57:03;;;;;;;3.80;1.20;;;;;;;10.64;81.04;100782.19;105469;1294;59848;-73
2023/01/06 08:59:29;;;;;;;4.00;1.40;;;;;;;10.67;81.15;100787.77;105494;1284;59969;-73
2023/01/06 09:01:55;;;;;;;5.30;2.20;;;;;;;10.68;81.08;100783.76;105443;1284;60195;-73
2023/01/06 09:04:23;;;;;;;4.20;1.10;;;;;;;10.73;81.37;100790.63;105641;1286;59781;-73
2023/01/06 09:06:49;;;;;;;3.30;1.00;;;;;;;10.78;81.16;100775.90;105529;1287;60006;-74
2023/01/06 09:09:15;;;;;;;3.30;0.80;;;;;;;10.84;80.92;100777.27;105516;1289;59856;-73
2023/01/06 09:11:43;;;;;;;3.20;0.90;;;;;;;10.87;80.50;100787.51;105527;1284;60073;-73
2023/01/06 09:14:12;;;;;;;2.10;0.80;;;;;;;10.92;80.79;100780.30;105393;1297;60328;-73
2023/01/06 09:16:39;;;;;;;3.40;1.10;;;;;;;10.97;80.88;100771.23;105439;1294;75605;-73
2023/01/06 09:19:05;;;;;;;3.50;0.70;;;;;;;11.00;80.97;100775.14;105625;1294;71314;-73
2023/01/06 09:21:32;;;;;;;2.80;1.00;;;;;;;10.96;80.87;100776.28;105546;1294;59924;-73
2023/01/06 09:23:58;;;;;;;3.00;0.80;;;;;;;10.96;81.43;100784.63;105523;1287;59760;-73
2023/01/06 09:26:25;;;;;;;4.00;1.40;;;;;;;10.97;81.96;100786.11;105502;1293;59881;-73
2023/01/06 09:28:51;;;;;;;2.00;0.80;;;;;;;10.96;82.57;100788.88;105588;1293;60164;-73
2023/01/06 09:31:18;;;;;;;3.80;1.00;;;;;;;10.90;82.70;100790.70;105408;1293;60067;-73
2023/01/06 09:33:45;;;;;;;4.30;1.20;;;;;;;10.86;82.66;100795.61;105375;1297;73246;-73
2023/01/06 09:36:11;;;;;;;2.00;1.10;;;;;;;10.81;82.85;100795.76;105438;1287;61396;-73
2023/01/06 09:38:38;;;;;;;4.40;0.80;;;;;;;10.79;82.74;100794.05;105611;1294;60508;-73
2023/01/06 09:41:25;;;;;;;2.80;0.90;;;;;;;10.81;82.82;100796.65;105591;1286;60084;-73
2023/01/06 09:44:11;;;;;;;3.40;1.00;;;;;;;10.78;84.13;100791.64;105494;1289;69626;-73
2023/01/06 09:46:44;;;;;;;2.90;0.70;;;;;;;10.69;84.99;100798.70;105497;1294;71268;-74
2023/01/06 09:49:41;;;;;;;4.30;0.80;;;;;;;10.57;86.05;100803.97;105388;1294;60929;-73
2023/01/06 09:52:18;;;;;;;2.50;0.80;;;;;;;10.47;86.92;100798.50;105476;1294;59716;-74
2023/01/06 09:54:53;;;;;;;2.50;0.90;;;;;;;10.40;86.98;100795.11;105499;1289;74615;-74
2023/01/06 09:57:49;;;;;;;2.70;0.90;;;;;;;10.36;87.56;100790.92;105647;1292;71577;-74
2023/01/06 10:00:33;;;;;;;4.10;1.00;;;;;;;10.35;87.65;100785.16;105472;1294;72858;-74
2023/01/06 10:02:59;;;;;;;3.40;0.70;;;;;;;10.38;87.74;100786.27;105482;1294;61000;-74
2023/01/06 10:05:45;;;;;;;4.90;0.70;;;;;;;10.38;87.19;100786.40;105468;1289;60015;-74
2023/01/06 10:08:53;;;;;;;2.30;1.00;;;;;;;10.38;87.18;100786.07;105515;1286;74514;-74
2023/01/06 10:11:46;;;;;;;3.20;0.90;;;;;;;10.41;87.85;100786.41;105360;1297;71357;-74
2023/01/06 10:14:44;;;;;;;2.30;0.90;;;;;;;10.44;87.74;100797.45;105621;1286;71512;-73
2023/01/06 10:17:17;;;;;;;2.80;0.80;;;;;;;10.44;86.82;100806.60;105608;1290;61828;-74
2023/01/06 10:19:53;;;;;;;2.40;0.80;;;;;;;10.47;87.51;100792.14;105565;1286;59870;-74
2023/01/06 10:22:28;;;;;;;3.10;1.00;;;;;;;10.45;88.09;100799.48;105650;1290;75330;-74
2023/01/06 10:25:19;;;;;;;1.50;0.80;;;;;;;10.41;88.61;100801.10;105464;1295;69722;-74
2023/01/06 10:27:54;;;;;;;2.40;1.20;;;;;;;10.38;88.69;100785.89;105586;1290;71422;-74
2023/01/06 10:30:27;;;;;;;1.60;0.80;;;;;;;10.36;89.15;100792.60;105465;1294;61761;-73
2023/01/06 10:32:59;;;;;;;2.40;0.80;;;;;;;10.37;89.48;100792.90;105524;1287;59791;-73
2023/01/06 10:35:26;;;;;;;1.70;0.90;;;;;;;10.38;89.46;100800.05;105379;1293;74218;-73
2023/01/06 10:37:55;;;;;;;1.50;0.90;;;;;;;10.37;89.61;100797.84;105483;1295;70472;-73
2023/01/06 10:40:24;;;;;;;2.00;0.90;;;;;;;10.38;89.92;100796.20;105502;1287;71608;-74
2023/01/06 10:42:54;;;;;;;3.50;1.20;;;;;;;10.40;90.19;100794.15;105516;1292;60451;-74
2023/01/06 10:45:38;;;;;;;2.10;1.00;;;;;;;10.44;90.51;100788.46;105558;1285;60475;-74
2023/01/06 10:48:10;;;;;;;3.30;1.00;;;;;;;10.43;91.00;100793.97;105503;1292;75490;-74
2023/01/06 10:50:37;;;;;;;2.30;1.10;;;;;;;10.38;91.05;100796.98;105573;1293;70848;-74
2023/01/06 10:53:04;;;;;;;1.80;1.10;;;;;;;10.38;91.41;100794.58;105409;1286;72801;-74
2023/01/06 10:55:44;;;;;;;3.40;1.70;;;;;;;10.34;91.82;100809.68;105388;1293;61819;-74
2023/01/06 10:58:17;;;;;;;4.30;2.30;;;;;;;10.30;92.09;100807.00;105427;1294;59744;-74
2023/01/06 11:01:07;;;;;;;6.00;2.70;;;;;;;10.27;92.51;100802.98;105588;1286;74665;-74
2023/01/06 11:03:35;;;;;;;2.20;1.30;;;;;;;10.25;92.95;100807.86;105544;1286;69775;-74
2023/01/06 11:06:27;;;;;;;2.80;1.10;;;;;;;10.24;93.21;100800.72;105474;1294;72615;-74
2023/01/06 11:08:54;;;;;;;2.30;0.80;;;;;;;10.25;93.56;100792.14;105458;1294;60542;-74
2023/01/06 11:11:22;;;;;;;3.00;1.00;;;;;;;10.23;93.53;100802.43;105496;1292;60218;-74
2023/01/06 11:14:02;;;;;;;1.80;0.90;;;;;;;10.24;93.94;100796.29;105633;1286;75021;-74
2023/01/06 11:16:35;;;;;;;2.90;1.20;;;;;;;10.25;94.51;100801.38;105575;1294;70149;-74
2023/01/06 11:19:03;;;;;;;1.50;0.90;;;;;;;10.26;94.71;100797.18;105382;1283;72846;-74
2023/01/06 11:21:39;;;;;;;3.00;1.20;;;;;;;10.25;94.88;100804.27;105607;1292;61854;-74
2023/01/06 11:24:24;;;;;;;1.90;1.00;;;;;;;10.26;94.74;100802.95;105519;1286;59697;-73
2023/01/06 11:26:59;;;;;;;2.10;1.20;;;;;;;10.32;95.08;100792.12;105488;1289;74807;-73
2023/01/06 11:29:34;;;;;;;2.20;1.20;;;;;;;10.41;94.64;100790.65;105484;1287;70631;-73
2023/01/06 11:32:14;;;;;;;1.90;1.20;;;;;;;10.59;93.91;100790.42;105428;1280;71415;-74
2023/01/06 11:34:53;;;;;;;2.50;1.00;;;;;;;10.75;92.72;100785.64;105531;1287;60948;-74
2023/01/06 11:37:33;;;;;;;2.30;0.90;;;;;;;10.86;91.82;100781.44;105597;1286;60181;-73